createdAt,value
2019-06-10T00:01:06.947Z,101309.41
2019-06-10T00:03:35.151Z,101307.05
2019-06-10T00:06:05.680Z,101306.30
2019-06-10T00:08:35.257Z,101303.73
2019-06-10T00:11:06.147Z,101294.73
2019-06-10T00:13:35.664Z,101294.16
2019-06-10T00:16:06.348Z,101289.77
2019-06-10T00:18:42.080Z,101290.24
2019-06-10T00:21:07.953Z,101289.12
2019-06-10T00:23:37.554Z,101281.58
2019-06-10T00:26:08.053Z,101283.81
2019-06-10T00:28:37.505Z,101280.93
2019-06-10T00:31:06.956Z,101280.41
2019-06-10T00:33:36.329Z,101275.17
2019-06-10T00:36:08.624Z,101273.77
2019-06-10T00:38:36.686Z,101275.17
2019-06-10T00:41:07.637Z,101270.79
2019-06-10T00:43:37.112Z,101265.04
2019-06-10T00:46:07.448Z,101268.14
2019-06-10T00:48:37.472Z,101262.34
2019-06-10T00:51:07.306Z,101253.23
2019-06-10T00:53:36.739Z,101261.88
2019-06-10T00:56:07.272Z,101256.30
2019-06-10T00:58:40.742Z,101254.25
2019-06-10T01:01:13.969Z,101257.30
2019-06-10T01:03:41.642Z,101249.61
2019-06-10T01:06:13.707Z,101249.92
2019-06-10T01:08:41.723Z,101242.81
2019-06-10T01:11:20.287Z,101241.77
2019-06-10T01:13:43.349Z,101234.02
2019-06-10T01:16:15.230Z,101230.38
2019-06-10T01:18:44.129Z,101222.81
2019-06-10T01:21:14.244Z,101222.11
2019-06-10T01:23:44.491Z,101214.26
2019-06-10T01:26:16.279Z,101214.09
2019-06-10T01:28:45.101Z,101211.99
2019-06-10T01:31:20.508Z,101207.30
2019-06-10T01:33:45.666Z,101207.09
2019-06-10T01:36:18.813Z,101199.36
2019-06-10T01:38:51.187Z,101195.08
2019-06-10T01:41:21.337Z,101195.27
2019-06-10T01:43:51.487Z,101199.89
2019-06-10T01:46:21.260Z,101190.53
2019-06-10T01:48:52.173Z,101185.19
2019-06-10T01:51:24.881Z,101179.80
2019-06-10T01:53:54.181Z,101176.72
2019-06-10T01:56:23.541Z,101164.55
2019-06-10T01:58:52.857Z,101165.20
2019-06-10T02:01:46.822Z,101158.11
2019-06-10T02:04:18.217Z,101150.31
2019-06-10T02:06:51.103Z,101149.25
2019-06-10T02:09:23.106Z,101145.85
2019-06-10T02:11:51.928Z,101138.91
2019-06-10T02:14:24.170Z,101143.69
2019-06-10T02:16:53.096Z,101134.83
2019-06-10T02:19:23.433Z,101122.92
2019-06-10T02:21:52.579Z,101121.39
2019-06-10T02:24:23.588Z,101112.27
2019-06-10T02:26:53.369Z,101112.27
2019-06-10T02:29:23.624Z,101111.95
2019-06-10T02:31:52.948Z,101113.61
2019-06-10T02:34:27.148Z,101113.67
2019-06-10T02:36:53.796Z,101107.45
2019-06-10T02:39:32.313Z,101110.97
2019-06-10T02:41:58.132Z,101109.34
2019-06-10T02:44:33.099Z,101106.53
2019-06-10T02:46:59.611Z,101108.40
2019-06-10T02:49:46.584Z,101107.08
2019-06-10T02:52:03.675Z,101095.00
2019-06-10T02:54:35.932Z,101095.13
2019-06-10T02:57:04.569Z,101092.95
2019-06-10T02:59:36.422Z,101080.24
2019-06-10T03:02:05.223Z,101077.21
2019-06-10T03:04:37.637Z,101073.63
2019-06-10T03:07:08.487Z,101065.73
2019-06-10T03:09:38.835Z,101069.19
2019-06-10T03:12:08.232Z,101066.30
2019-06-10T03:14:37.849Z,101065.14
2019-06-10T03:17:12.475Z,101059.47
2019-06-10T03:19:50.129Z,101064.50
2019-06-10T03:22:14.042Z,101061.09
2019-06-10T03:24:43.071Z,101059.81
2019-06-10T03:27:12.670Z,101060.70
2019-06-10T03:29:42.175Z,101067.13
2019-06-10T03:32:15.182Z,101063.80
2019-06-10T03:34:47.383Z,101062.02
2019-06-10T03:37:14.351Z,101066.43
2019-06-10T03:39:43.363Z,101057.83
2019-06-10T03:42:12.757Z,101056.36
2019-06-10T03:44:43.081Z,101057.09
2019-06-10T03:47:12.842Z,101056.41
2019-06-10T03:49:52.418Z,101065.55
2019-06-10T03:52:13.097Z,101068.59
2019-06-10T03:54:43.278Z,101068.13
2019-06-10T03:57:12.519Z,101074.86
2019-06-10T03:59:42.238Z,101073.70
2019-06-10T04:02:12.805Z,101065.89
2019-06-10T04:04:42.937Z,101066.36
2019-06-10T04:07:14.232Z,101061.46
2019-06-10T04:09:43.365Z,101048.02
2019-06-10T04:12:12.911Z,101052.71
2019-06-10T04:14:42.155Z,101045.48
2019-06-10T04:17:13.045Z,101040.03
2019-06-10T04:19:42.607Z,101039.91
2019-06-10T04:22:13.044Z,101049.03
2019-06-10T04:24:43.137Z,101057.42
2019-06-10T04:27:12.371Z,101060.13
2019-06-10T04:29:42.243Z,101058.56
2019-06-10T04:32:12.273Z,101051.63
2019-06-10T04:34:43.335Z,101045.35
2019-06-10T04:37:12.712Z,101039.59
2019-06-10T04:39:42.771Z,101041.73
2019-06-10T04:42:13.045Z,101034.53
2019-06-10T04:44:42.583Z,101045.17
2019-06-10T04:47:12.137Z,101043.66
2019-06-10T04:49:42.865Z,101043.46
2019-06-10T04:52:12.445Z,101041.63
2019-06-10T04:54:42.120Z,101043.75
2019-06-10T04:57:12.810Z,101039.45
2019-06-10T04:59:42.983Z,101040.80
2019-06-10T05:02:12.894Z,101043.75
2019-06-10T05:04:42.630Z,101049.16
2019-06-10T05:07:12.595Z,101039.81
2019-06-10T05:09:42.215Z,101044.39
2019-06-10T05:12:12.193Z,101046.13
2019-06-10T05:14:43.258Z,101039.83
2019-06-10T05:17:12.799Z,101040.80
2019-06-10T05:19:42.925Z,101046.59
2019-06-10T05:22:12.470Z,101042.05
2019-06-10T05:24:42.395Z,101031.79
2019-06-10T05:27:12.529Z,101033.91
2019-06-10T05:29:42.270Z,101033.34
2019-06-10T05:32:12.769Z,101034.60
2019-06-10T05:34:43.676Z,101038.05
2019-06-10T05:37:13.038Z,101038.84
2019-06-10T05:39:43.124Z,101042.20
2019-06-10T05:42:13.347Z,101044.19
2019-06-10T05:44:43.068Z,101043.37
2019-06-10T05:47:12.765Z,101030.58
2019-06-10T05:49:43.077Z,101024.26
2019-06-10T05:52:12.663Z,101027.40
2019-06-10T05:54:43.111Z,101025.72
2019-06-10T05:57:12.578Z,101030.73
2019-06-10T05:59:43.254Z,101030.97
2019-06-10T06:02:12.945Z,101028.51
2019-06-10T06:04:42.807Z,101022.80
2019-06-10T06:07:12.856Z,101024.89
2019-06-10T06:09:42.750Z,101022.38
2019-06-10T06:12:14.270Z,101011.89
2019-06-10T06:14:43.295Z,101014.41
2019-06-10T06:17:12.807Z,101009.43
2019-06-10T06:19:43.475Z,101009.63
2019-06-10T06:22:13.068Z,101005.23
2019-06-10T06:24:42.760Z,101002.34
2019-06-10T06:27:13.098Z,100992.89
2019-06-10T06:29:43.236Z,100989.56
2019-06-10T06:32:13.201Z,100988.65
2019-06-10T06:34:43.179Z,100975.28
2019-06-10T06:37:12.818Z,100970.41
2019-06-10T06:39:42.967Z,100973.50
2019-06-10T06:42:12.925Z,100977.30
2019-06-10T06:44:43.353Z,100972.19
2019-06-10T06:47:13.287Z,100971.60
2019-06-10T06:49:43.190Z,100966.63
2019-06-10T06:52:13.011Z,100969.92
2019-06-10T06:54:42.556Z,100968.77
2019-06-10T06:57:13.088Z,100968.81
2019-06-10T06:59:43.204Z,100974.41
2019-06-10T07:02:12.822Z,100968.81
2019-06-10T07:04:43.296Z,100970.80
2019-06-10T07:07:13.406Z,100970.54
2019-06-10T07:09:43.527Z,100976.39
2019-06-10T07:12:13.135Z,100969.66
2019-06-10T07:14:44.990Z,100965.94
2019-06-10T07:17:14.406Z,100968.22
2019-06-10T07:19:45.750Z,100958.19
2019-06-10T07:22:16.333Z,100953.41
2019-06-10T07:24:47.492Z,100947.01
2019-06-10T07:27:16.597Z,100934.80
2019-06-10T07:29:47.339Z,100940.43
2019-06-10T07:32:18.064Z,100944.48
2019-06-10T07:34:47.346Z,100938.65
2019-06-10T07:37:17.040Z,100929.28
2019-06-10T07:39:46.304Z,100919.23
2019-06-10T07:42:16.299Z,100908.52
2019-06-10T07:44:46.238Z,100910.02
2019-06-10T07:47:15.813Z,100918.33
2019-06-10T07:49:45.662Z,100925.52
2019-06-10T07:52:19.827Z,100932.78
2019-06-10T07:54:46.812Z,100924.59
2019-06-10T07:57:16.290Z,100915.48
2019-06-10T07:59:46.156Z,100905.52
2019-06-10T08:02:15.537Z,100899.38
2019-06-10T08:04:46.005Z,100893.52
2019-06-10T08:07:15.448Z,100885.14
2019-06-10T08:09:45.803Z,100879.25
2019-06-10T08:12:16.158Z,100882.35
2019-06-10T08:14:45.771Z,100873.22
2019-06-10T08:17:15.359Z,100865.15
2019-06-10T08:19:49.633Z,100859.98
2019-06-10T08:22:29.860Z,100855.16
2019-06-10T08:24:48.445Z,100849.89
2019-06-10T08:27:18.092Z,100848.36
2019-06-10T08:29:49.660Z,100850.39
2019-06-10T08:32:19.097Z,100855.05
2019-06-10T08:34:48.327Z,100854.09
2019-06-10T08:37:18.270Z,100852.99
2019-06-10T08:39:48.099Z,100858.86
2019-06-10T08:42:17.519Z,100855.77
2019-06-10T08:44:48.615Z,100852.47
2019-06-10T08:47:18.044Z,100853.08
2019-06-10T08:49:49.038Z,100857.06
2019-06-10T08:52:19.194Z,100862.89
2019-06-10T08:54:51.094Z,100867.92
2019-06-10T08:57:23.238Z,100857.86
2019-06-10T08:59:53.319Z,100862.11
2019-06-10T09:02:23.036Z,100865.28
2019-06-10T09:04:53.986Z,100865.20
2019-06-10T09:07:23.953Z,100862.17
2019-06-10T09:09:54.132Z,100870.18
2019-06-10T09:12:32.915Z,100885.14
2019-06-10T09:14:54.993Z,100892.53
2019-06-10T09:17:24.486Z,100911.36
2019-06-10T09:19:54.273Z,100911.64
2019-06-10T09:22:24.189Z,100918.63
2019-06-10T09:24:56.375Z,100906.69
2019-06-10T09:27:26.984Z,100905.31
2019-06-10T09:29:55.981Z,100909.81
2019-06-10T09:32:25.306Z,100899.92
2019-06-10T09:34:57.475Z,100911.80
2019-06-10T09:37:25.137Z,100920.95
2019-06-10T09:39:59.470Z,100918.03
2019-06-10T09:42:25.212Z,100918.63
2019-06-10T09:44:55.651Z,100910.27
2019-06-10T09:47:25.166Z,100905.23
2019-06-10T09:49:55.748Z,100900.00
2019-06-10T09:52:25.444Z,100886.77
2019-06-10T09:54:56.700Z,100870.64
2019-06-10T09:57:28.731Z,100861.89
2019-06-10T09:59:57.809Z,100861.20
2019-06-10T10:02:26.887Z,100860.56
2019-06-10T10:04:58.369Z,100849.40
2019-06-10T10:07:27.324Z,100828.63
2019-06-10T10:09:57.422Z,100827.86
2019-06-10T10:12:26.511Z,100829.89
2019-06-10T10:14:56.528Z,100821.61
2019-06-10T10:17:25.787Z,100818.61
2019-06-10T10:19:56.998Z,100824.98
2019-06-10T10:22:25.988Z,100833.73
2019-06-10T10:24:56.762Z,100840.42
2019-06-10T10:27:25.924Z,100841.30
2019-06-10T10:29:57.889Z,100831.06
2019-06-10T10:32:27.296Z,100836.01
2019-06-10T10:34:56.641Z,100836.61
2019-06-10T10:37:25.808Z,100837.48
2019-06-10T10:39:56.544Z,100844.05
2019-06-10T10:42:39.127Z,100848.28
2019-06-10T10:44:59.043Z,100857.47
2019-06-10T10:47:27.982Z,100852.08
2019-06-10T10:49:57.207Z,100850.69
2019-06-10T10:52:26.561Z,100842.28
2019-06-10T10:54:55.892Z,100845.11
2019-06-10T10:57:25.439Z,100852.47
2019-06-10T10:59:56.210Z,100849.63
2019-06-10T11:02:25.717Z,100850.39
2019-06-10T11:04:57.005Z,100855.70
2019-06-10T11:07:25.942Z,100854.17
2019-06-10T11:09:56.879Z,100844.78
2019-06-10T11:12:26.344Z,100842.79
2019-06-10T11:15:00.445Z,100833.92
2019-06-10T11:17:33.461Z,100825.84
2019-06-10T11:20:03.823Z,100830.61
2019-06-10T11:22:33.355Z,100829.23
2019-06-10T11:25:02.517Z,100828.69
2019-06-10T11:27:33.136Z,100820.70
2019-06-10T11:30:02.782Z,100824.33
2019-06-10T11:32:33.755Z,100819.94
2019-06-10T11:35:03.141Z,100816.70
2019-06-10T11:37:32.978Z,100816.84
2019-06-10T11:40:02.872Z,100817.73
2019-06-10T11:42:34.328Z,100806.25
2019-06-10T11:45:03.655Z,100808.97
2019-06-10T11:47:33.220Z,100812.16
2019-06-10T11:50:03.433Z,100813.37
2019-06-10T11:52:33.623Z,100809.72
2019-06-10T11:55:14.330Z,100802.92
2019-06-10T11:57:34.381Z,100796.58
2019-06-10T12:00:13.663Z,100797.67
2019-06-10T12:02:36.070Z,100791.97
2019-06-10T12:05:05.511Z,100792.02
2019-06-10T12:07:35.037Z,100792.45
2019-06-10T12:10:05.247Z,100788.92
2019-06-10T12:12:34.469Z,100784.32
2019-06-10T12:15:03.799Z,100789.87
2019-06-10T12:17:43.094Z,100793.92
2019-06-10T12:20:05.565Z,100799.23
2019-06-10T12:22:34.829Z,100803.46
2019-06-10T12:25:28.491Z,100800.97
2019-06-10T12:27:37.654Z,100801.56
2019-06-10T12:30:07.955Z,100800.69
2019-06-10T12:32:37.636Z,100790.39
2019-06-10T12:35:07.807Z,100790.29
2019-06-10T12:37:37.626Z,100776.11
2019-06-10T12:40:07.081Z,100762.61
2019-06-10T12:42:37.182Z,100753.22
2019-06-10T12:45:12.760Z,100769.89
2019-06-10T12:47:42.517Z,100772.67
2019-06-10T12:50:14.809Z,100761.35
2019-06-10T12:52:44.014Z,100754.01
2019-06-10T12:55:14.494Z,100748.35
2019-06-10T12:57:43.863Z,100749.84
2019-06-10T13:00:20.366Z,100744.88
2019-06-10T13:02:45.143Z,100735.95
2019-06-10T13:05:14.371Z,100746.09
2019-06-10T13:07:44.535Z,100730.61
2019-06-10T13:10:16.419Z,100724.59
2019-06-10T13:12:48.935Z,100724.52
2019-06-10T13:15:18.570Z,100723.91
2019-06-10T13:17:47.755Z,100719.60
2019-06-10T13:20:17.134Z,100709.24
2019-06-10T13:22:46.182Z,100711.73
2019-06-10T13:25:15.253Z,100719.50
2019-06-10T13:27:44.275Z,100724.59
2019-06-10T13:30:13.355Z,100724.69
2019-06-10T13:32:43.536Z,100710.89
2019-06-10T13:35:12.921Z,100701.48
2019-06-10T13:37:42.889Z,100706.59
2019-06-10T13:40:13.124Z,100714.75
2019-06-10T13:42:42.489Z,100702.92
2019-06-10T13:45:12.791Z,100706.72
2019-06-10T13:47:43.025Z,100711.61
2019-06-10T13:50:14.512Z,100696.56
2019-06-10T13:52:44.128Z,100707.65
2019-06-10T13:55:13.786Z,100714.27
2019-06-10T13:57:44.897Z,100719.50
2019-06-10T14:00:16.360Z,100720.50
2019-06-10T14:02:45.842Z,100716.30
2019-06-10T14:05:18.186Z,100701.16
2019-06-10T14:07:46.077Z,100689.95
2019-06-10T14:10:18.152Z,100696.62
2019-06-10T14:12:48.992Z,100688.55
2019-06-10T14:15:18.041Z,100683.31
2019-06-10T14:17:47.236Z,100682.68
2019-06-10T14:20:17.281Z,100679.70
2019-06-10T14:22:46.696Z,100676.98
2019-06-10T14:25:16.846Z,100673.67
2019-06-10T14:27:46.205Z,100671.30
2019-06-10T14:30:15.704Z,100680.28
2019-06-10T14:32:44.747Z,100695.51
2019-06-10T14:35:17.230Z,100683.16
2019-06-10T14:37:44.592Z,100678.67
2019-06-10T14:40:20.846Z,100675.59
2019-06-10T14:42:45.334Z,100660.71
2019-06-10T14:45:16.605Z,100660.75
2019-06-10T14:47:45.659Z,100658.31
2019-06-10T14:50:17.306Z,100660.34
2019-06-10T14:52:45.807Z,100663.47
2019-06-10T14:55:18.373Z,100665.03
2019-06-10T14:57:45.919Z,100659.62
2019-06-10T15:00:17.958Z,100660.48
2019-06-10T15:02:46.253Z,100653.22
2019-06-10T15:05:17.092Z,100647.69
2019-06-10T15:07:46.791Z,100654.89
2019-06-10T15:10:17.846Z,100657.64
2019-06-10T15:12:47.358Z,100653.97
2019-06-10T15:15:17.708Z,100647.61
2019-06-10T15:17:47.066Z,100645.96
2019-06-10T15:20:17.057Z,100648.20
2019-06-10T15:22:46.422Z,100641.48
2019-06-10T15:25:17.726Z,100638.33
2019-06-10T15:27:46.902Z,100644.95
2019-06-10T15:30:23.498Z,100653.91
2019-06-10T15:32:46.881Z,100650.94
2019-06-10T15:35:18.637Z,100652.93
2019-06-10T15:37:46.757Z,100661.28
2019-06-10T15:40:17.030Z,100664.27
2019-06-10T15:42:46.975Z,100665.25
2019-06-10T15:45:19.448Z,100662.31
2019-06-10T15:47:48.860Z,100661.84
2019-06-10T15:50:19.083Z,100662.20
2019-06-10T15:52:48.138Z,100673.16
2019-06-10T15:55:46.622Z,100675.64
2019-06-10T15:57:49.752Z,100668.48
2019-06-10T16:00:22.325Z,100657.59
2019-06-10T16:02:50.833Z,100644.58
2019-06-10T16:05:21.234Z,100641.30
2019-06-10T16:07:52.998Z,100629.19
2019-06-10T16:10:27.087Z,100627.28
2019-06-10T16:12:53.706Z,100605.88
2019-06-10T16:15:26.093Z,100590.58
2019-06-10T16:17:54.686Z,100604.33
2019-06-10T16:20:24.348Z,100615.77
2019-06-10T16:22:56.246Z,100614.09
2019-06-10T16:25:26.628Z,100611.50
2019-06-10T16:27:56.160Z,100610.02
2019-06-10T16:30:26.055Z,100607.78
2019-06-10T16:32:55.724Z,100612.91
2019-06-10T16:35:26.736Z,100629.06
2019-06-10T16:37:56.942Z,100626.47
2019-06-10T16:40:27.312Z,100638.64
2019-06-10T16:42:56.822Z,100650.77
2019-06-10T16:45:30.311Z,100651.95
2019-06-10T16:47:57.090Z,100653.55
2019-06-10T16:50:27.444Z,100651.34
2019-06-10T16:52:56.552Z,100652.35
2019-06-10T16:55:27.099Z,100648.03
2019-06-10T16:57:59.614Z,100645.80
2019-06-10T17:00:27.781Z,100646.19
2019-06-10T17:02:56.795Z,100637.73
2019-06-10T17:05:27.616Z,100649.12
2019-06-10T17:07:57.281Z,100640.95
2019-06-10T17:10:28.158Z,100643.39
2019-06-10T17:13:03.284Z,100639.06
2019-06-10T17:15:33.092Z,100634.69
2019-06-10T17:18:02.913Z,100634.54
2019-06-10T17:20:34.170Z,100610.50
2019-06-10T17:23:26.646Z,100639.20
2019-06-10T17:25:57.396Z,100638.29
2019-06-10T17:28:31.656Z,100630.23
2019-06-10T17:30:58.885Z,100630.42
2019-06-10T17:33:30.501Z,100634.66
2019-06-10T17:35:59.324Z,100637.70
2019-06-10T17:38:29.057Z,100636.27
2019-06-10T17:40:58.728Z,100636.05
2019-06-10T17:43:29.362Z,100636.72
2019-06-10T17:45:59.266Z,100628.64
2019-06-10T17:48:29.202Z,100630.59
2019-06-10T17:50:58.906Z,100641.28
2019-06-10T17:53:28.228Z,100638.58
2019-06-10T17:55:57.398Z,100635.27
2019-06-10T17:58:40.537Z,100639.72
2019-06-10T18:00:57.308Z,100631.02
2019-06-10T18:03:27.899Z,100652.77
2019-06-10T18:05:58.235Z,100653.23
2019-06-10T18:08:27.706Z,100650.42
2019-06-10T18:10:56.850Z,100650.95
2019-06-10T18:13:26.316Z,100660.59
2019-06-10T18:15:55.631Z,100662.70
2019-06-10T18:18:26.327Z,100657.88
2019-06-10T18:20:55.599Z,100659.84
2019-06-10T18:23:24.962Z,100668.12
2019-06-10T18:25:55.834Z,100671.87
2019-06-10T18:28:25.016Z,100667.02
2019-06-10T18:30:54.101Z,100652.83
2019-06-10T18:33:23.322Z,100655.25
2019-06-10T18:35:53.270Z,100654.83
2019-06-10T18:38:22.915Z,100658.19
2019-06-10T18:40:53.646Z,100665.48
2019-06-10T18:43:23.245Z,100662.84
2019-06-10T18:45:53.324Z,100663.49
2019-06-10T18:48:23.417Z,100654.95
2019-06-10T18:50:53.418Z,100655.83
2019-06-10T18:53:23.887Z,100660.45
2019-06-10T18:55:54.838Z,100667.91
2019-06-10T18:58:23.960Z,100669.47
2019-06-10T19:01:03.395Z,100676.64
2019-06-10T19:03:25.130Z,100674.86
2019-06-10T19:05:54.516Z,100685.05
2019-06-10T19:08:23.762Z,100690.36
2019-06-10T19:10:53.861Z,100691.17
2019-06-10T19:13:23.234Z,100691.45
2019-06-10T19:15:53.301Z,100690.91
2019-06-10T19:18:23.720Z,100691.31
2019-06-10T19:20:53.582Z,100687.97
2019-06-10T19:23:23.955Z,100692.86
2019-06-10T19:25:53.761Z,100689.16
2019-06-10T19:28:23.430Z,100699.72
2019-06-10T19:30:53.487Z,100701.81
2019-06-10T19:33:23.830Z,100704.43
2019-06-10T19:35:54.934Z,100706.66
2019-06-10T19:38:24.229Z,100708.78
2019-06-10T19:40:56.687Z,100709.95
2019-06-10T19:43:25.820Z,100705.20
2019-06-10T19:45:54.840Z,100713.72
2019-06-10T19:48:23.901Z,100721.79
2019-06-10T19:50:53.905Z,100720.98
2019-06-10T19:53:23.292Z,100722.59
2019-06-10T19:55:53.287Z,100723.61
2019-06-10T19:58:23.314Z,100724.83
2019-06-10T20:00:54.397Z,100732.28
2019-06-10T20:03:23.686Z,100744.24
2019-06-10T20:05:53.580Z,100748.16
2019-06-10T20:08:22.876Z,100753.59
2019-06-10T20:10:53.221Z,100758.19
2019-06-10T20:13:23.302Z,100767.56
2019-06-10T20:15:52.674Z,100769.36
2019-06-10T20:18:22.674Z,100769.04
2019-06-10T20:20:53.997Z,100779.03
2019-06-10T20:23:22.951Z,100781.95
2019-06-10T20:25:52.705Z,100786.53
2019-06-10T20:28:22.504Z,100778.79
2019-06-10T20:30:52.985Z,100785.47
2019-06-10T20:33:36.984Z,100781.74
2019-06-10T20:36:08.024Z,100790.06
2019-06-10T20:38:38.245Z,100790.88
2019-06-10T20:41:07.732Z,100790.81
2019-06-10T20:43:37.381Z,100787.09
2019-06-10T20:46:06.730Z,100789.05
2019-06-10T20:48:35.738Z,100788.20
2019-06-10T20:51:05.386Z,100789.28
2019-06-10T20:53:34.620Z,100797.81
2019-06-10T20:56:05.027Z,100798.84
2019-06-10T20:58:34.706Z,100795.80
2019-06-10T21:01:04.900Z,100804.33
2019-06-10T21:03:34.479Z,100805.11
2019-06-10T21:06:05.028Z,100810.86
2019-06-10T21:08:34.458Z,100816.44
2019-06-10T21:11:04.219Z,100805.95
2019-06-10T21:13:33.648Z,100806.23
2019-06-10T21:16:03.741Z,100800.88
2019-06-10T21:18:35.151Z,100791.77
2019-06-10T21:21:04.287Z,100800.80
2019-06-10T21:23:34.162Z,100794.14
2019-06-10T21:26:03.957Z,100794.77
2019-06-10T21:28:33.374Z,100791.48
2019-06-10T21:31:03.227Z,100797.78
2019-06-10T21:33:33.512Z,100799.66
2019-06-10T21:36:05.994Z,100794.36
2019-06-10T21:38:35.380Z,100797.27
2019-06-10T21:41:04.738Z,100798.21
2019-06-10T21:43:33.906Z,100796.70
2019-06-10T21:46:04.074Z,100800.52
2019-06-10T21:48:33.186Z,100800.41
2019-06-10T21:51:02.433Z,100798.53
2019-06-10T21:53:31.843Z,100785.78
2019-06-10T21:56:01.762Z,100788.91
2019-06-10T21:58:32.790Z,100790.90
2019-06-10T22:01:12.432Z,100788.02
2019-06-10T22:03:34.045Z,100800.63
2019-06-10T22:06:03.474Z,100789.53
2019-06-10T22:08:33.725Z,100788.48
2019-06-10T22:11:03.943Z,100789.94
2019-06-10T22:13:33.076Z,100789.87
2019-06-10T22:16:03.394Z,100787.87
2019-06-10T22:18:32.769Z,100785.11
2019-06-10T22:21:02.867Z,100789.54
2019-06-10T22:23:33.089Z,100786.84
2019-06-10T22:26:02.885Z,100788.41
2019-06-10T22:28:32.839Z,100787.71
2019-06-10T22:31:18.116Z,100784.95
2019-06-10T22:33:34.543Z,100784.50
2019-06-10T22:36:04.602Z,100782.87
2019-06-10T22:38:34.789Z,100783.31
2019-06-10T22:41:04.089Z,100787.82
2019-06-10T22:43:33.912Z,100787.53
2019-06-10T22:46:04.019Z,100787.64
2019-06-10T22:48:33.454Z,100778.31
2019-06-10T22:51:03.193Z,100772.83
2019-06-10T22:53:33.350Z,100781.95
2019-06-10T22:56:05.367Z,100788.11
2019-06-10T22:58:34.909Z,100791.23
2019-06-10T23:01:04.506Z,100801.09
2019-06-10T23:03:36.830Z,100808.17
2019-06-10T23:06:07.018Z,100806.45
2019-06-10T23:08:36.282Z,100811.31
2019-06-10T23:11:05.739Z,100813.09
2019-06-10T23:13:35.252Z,100801.70
2019-06-10T23:16:04.397Z,100785.85
2019-06-10T23:18:33.576Z,100785.36
2019-06-10T23:21:04.435Z,100801.72
2019-06-10T23:23:34.443Z,100799.28
2019-06-10T23:26:04.003Z,100791.60
2019-06-10T23:28:33.295Z,100796.05
2019-06-10T23:31:05.598Z,100795.77
2019-06-10T23:33:34.898Z,100803.25
2019-06-10T23:36:04.747Z,100814.55
2019-06-10T23:38:34.245Z,100810.92
2019-06-10T23:41:03.921Z,100804.67
2019-06-10T23:43:33.645Z,100804.59
2019-06-10T23:46:04.293Z,100802.42
2019-06-10T23:48:33.815Z,100800.27
2019-06-10T23:51:05.075Z,100789.98
2019-06-10T23:53:34.624Z,100790.77
2019-06-10T23:56:05.012Z,100792.14
2019-06-10T23:58:34.344Z,100795.84
